Time;durP1;ratioP1;P1;durP2;ratioP2;P2;SDS_P1;SDS_P2;PMS_P1;PMS_P2;Temp;Humidity;BMP_temperature;BMP_pressure;BME280_temperature;BME280_humidity;BME280_pressure;Samples;Min_cycle;Max_cycle;Signal;HPM_P1;HPM_P2
2021/03/23 00:02:22;;;;;;;9.80;4.40;;;;;;;;;;4990171;28;20500;-70
2021/03/23 00:04:49;;;;;;;10.25;4.03;;;;;;;;;;4990393;28;20038;-70
2021/03/23 00:07:15;;;;;;;13.32;4.00;;;;;;;;;;4990085;28;20068;-70
2021/03/23 00:09:42;;;;;;;10.95;4.07;;;;;;;;;;4987177;28;20061;-70
2021/03/23 00:12:08;;;;;;;8.45;3.40;;;;;;;;;;4990715;28;20449;-69
2021/03/23 00:14:34;;;;;;;9.90;3.80;;;;;;;;;;4989622;28;20077;-70
2021/03/23 00:17:01;;;;;;;15.60;4.25;;;;;;;;;;4988394;28;20042;-69
2021/03/23 00:19:27;;;;;;;12.95;4.38;;;;;;;;;;4990828;28;20057;-70
2021/03/23 00:21:53;;;;;;;12.10;3.50;;;;;;;;;;4989780;28;20097;-70
2021/03/23 00:24:20;;;;;;;10.32;4.15;;;;;;;;;;4988876;28;20042;-70
2021/03/23 00:26:46;;;;;;;7.60;3.80;;;;;;;;;;4990556;28;20070;-70
2021/03/23 00:29:13;;;;;;;9.32;3.88;;;;;;;;;;4989638;28;20081;-70
2021/03/23 00:31:39;;;;;;;11.27;3.80;;;;;;;;;;4987705;28;20042;-69
2021/03/23 00:34:07;;;;;;;6.15;3.15;;;;;;;;;;4987235;28;20049;-70
2021/03/23 00:36:38;;;;;;;14.68;4.63;;;;;;;;;;4989625;28;20479;-69
2021/03/23 00:39:06;;;;;;;10.23;4.32;;;;;;;;;;4989398;28;20054;-70
2021/03/23 00:41:33;;;;;;;9.90;3.53;;;;;;;;;;4988499;28;20049;-70
2021/03/23 00:44:00;;;;;;;12.93;3.63;;;;;;;;;;4988836;28;20153;-70
2021/03/23 00:46:26;;;;;;;8.75;3.65;;;;;;;;;;4989567;28;20450;-70
2021/03/23 00:48:52;;;;;;;9.23;3.88;;;;;;;;;;4990674;28;20096;-70
2021/03/23 00:51:19;;;;;;;10.18;3.90;;;;;;;;;;4987743;28;20034;-70
2021/03/23 00:53:45;;;;;;;8.60;4.05;;;;;;;;;;4987402;28;20050;-70
2021/03/23 00:56:11;;;;;;;11.50;4.38;;;;;;;;;;4987992;28;20410;-70
2021/03/23 00:58:38;;;;;;;10.60;4.20;;;;;;;;;;4988237;28;20042;-70
2021/03/23 01:01:04;;;;;;;9.40;3.85;;;;;;;;;;4987413;28;20050;-70
2021/03/23 01:03:30;;;;;;;11.82;4.72;;;;;;;;;;4990275;28;20405;-70
2021/03/23 01:05:56;;;;;;;12.93;4.80;;;;;;;;;;4988810;28;20324;-70
2021/03/23 01:08:23;;;;;;;7.15;3.67;;;;;;;;;;4989243;28;20046;-70
2021/03/23 01:10:49;;;;;;;7.75;4.53;;;;;;;;;;4987874;28;20108;-69
2021/03/23 01:13:16;;;;;;;11.38;4.65;;;;;;;;;;4988829;28;20061;-70
2021/03/23 01:15:42;;;;;;;10.07;4.57;;;;;;;;;;4988244;28;20088;-69
2021/03/23 01:18:08;;;;;;;11.45;4.47;;;;;;;;;;4989984;28;20038;-69
2021/03/23 01:20:34;;;;;;;8.93;4.25;;;;;;;;;;4988958;28;20058;-70
2021/03/23 01:23:01;;;;;;;12.98;5.03;;;;;;;;;;4989966;28;20155;-69
2021/03/23 01:25:28;;;;;;;10.98;4.97;;;;;;;;;;4988835;28;20042;-70
2021/03/23 01:27:55;;;;;;;13.20;5.45;;;;;;;;;;4988396;28;20141;-70
2021/03/23 01:30:23;;;;;;;13.40;5.40;;;;;;;;;;4980013;28;20145;-70
2021/03/23 01:32:50;;;;;;;13.13;6.57;;;;;;;;;;4971595;28;20091;-70
2021/03/23 01:35:17;;;;;;;11.63;5.85;;;;;;;;;;4988752;28;20117;-69
2021/03/23 01:37:43;;;;;;;16.08;6.47;;;;;;;;;;4993552;28;20133;-70
2021/03/23 01:40:10;;;;;;;15.27;5.90;;;;;;;;;;4990797;28;20093;-70
2021/03/23 01:42:38;;;;;;;16.20;6.07;;;;;;;;;;4992038;28;20485;-70
2021/03/23 01:45:16;;;;;;;17.33;6.28;;;;;;;;;;4991808;28;20042;-70
2021/03/23 01:47:43;;;;;;;16.10;6.65;;;;;;;;;;4992509;28;20034;-69
2021/03/23 01:50:09;;;;;;;19.25;6.60;;;;;;;;;;4993502;28;20452;-69
2021/03/23 01:52:36;;;;;;;13.30;6.78;;;;;;;;;;4989575;28;20031;-69
2021/03/23 01:55:05;;;;;;;16.02;7.25;;;;;;;;;;4992450;28;20117;-69
2021/03/23 01:57:33;;;;;;;14.05;6.45;;;;;;;;;;4988717;28;20089;-70
2021/03/23 01:59:59;;;;;;;19.38;7.18;;;;;;;;;;4992546;28;20339;-69
2021/03/23 02:02:27;;;;;;;18.73;7.15;;;;;;;;;;4991748;28;20038;-70
2021/03/23 02:04:54;;;;;;;17.02;7.10;;;;;;;;;;4992837;28;20061;-69
2021/03/23 02:07:21;;;;;;;23.83;9.32;;;;;;;;;;4989704;28;20042;-70
2021/03/23 02:09:47;;;;;;;18.75;9.18;;;;;;;;;;4991310;28;20137;-70
2021/03/23 02:12:15;;;;;;;20.70;8.95;;;;;;;;;;4991564;28;20047;-70
2021/03/23 02:14:43;;;;;;;20.50;9.80;;;;;;;;;;4993061;28;20509;-70
2021/03/23 02:17:21;;;;;;;19.95;9.32;;;;;;;;;;4992106;28;20038;-70
2021/03/23 02:19:48;;;;;;;21.38;10.70;;;;;;;;;;4992700;28;20060;-70
2021/03/23 02:22:20;;;;;;;26.67;10.38;;;;;;;;;;4988711;28;20046;-70
2021/03/23 02:24:47;;;;;;;18.88;10.30;;;;;;;;;;4992765;28;20077;-70
2021/03/23 02:27:14;;;;;;;22.05;10.52;;;;;;;;;;4992694;28;20145;-70
2021/03/23 02:29:40;;;;;;;20.95;10.60;;;;;;;;;;4989734;28;20501;-69
2021/03/23 02:32:07;;;;;;;23.20;10.85;;;;;;;;;;4992547;28;20396;-69
2021/03/23 02:34:33;;;;;;;20.00;10.82;;;;;;;;;;4991568;28;20069;-70
2021/03/23 02:37:00;;;;;;;15.90;9.18;;;;;;;;;;4990683;28;20121;-70
2021/03/23 02:39:28;;;;;;;22.08;10.65;;;;;;;;;;4991051;28;20038;-70
2021/03/23 02:41:56;;;;;;;21.20;10.57;;;;;;;;;;4992508;28;20058;-70
2021/03/23 02:44:23;;;;;;;30.27;12.38;;;;;;;;;;4990566;28;20080;-70
2021/03/23 02:46:49;;;;;;;22.80;12.02;;;;;;;;;;4989750;28;20136;-70
2021/03/23 02:49:16;;;;;;;26.10;12.77;;;;;;;;;;4991809;28;20077;-69
2021/03/23 02:51:42;;;;;;;26.83;12.73;;;;;;;;;;4990758;28;20042;-70
2021/03/23 02:54:09;;;;;;;23.70;12.38;;;;;;;;;;4988876;28;20042;-69
2021/03/23 02:56:35;;;;;;;23.05;12.52;;;;;;;;;;4989904;28;20104;-70
2021/03/23 02:59:02;;;;;;;27.33;13.10;;;;;;;;;;4990391;28;20042;-69
2021/03/23 03:01:28;;;;;;;23.23;13.45;;;;;;;;;;4987266;28;20528;-70
2021/03/23 03:03:54;;;;;;;35.13;12.55;;;;;;;;;;4991472;28;20053;-69
2021/03/23 03:06:20;;;;;;;30.98;14.55;;;;;;;;;;4990419;28;20069;-69
2021/03/23 03:08:47;;;;;;;33.28;16.05;;;;;;;;;;4990742;28;20054;-69
2021/03/23 03:11:13;;;;;;;25.98;13.50;;;;;;;;;;4991730;28;20054;-70
2021/03/23 03:13:41;;;;;;;35.75;15.43;;;;;;;;;;4987910;28;20042;-69
2021/03/23 03:16:08;;;;;;;40.88;18.30;;;;;;;;;;4991020;28;20042;-69
2021/03/23 03:18:34;;;;;;;32.75;15.75;;;;;;;;;;4990778;28;20153;-70
2021/03/23 03:21:00;;;;;;;34.63;15.65;;;;;;;;;;4992137;28;20197;-69
2021/03/23 03:23:27;;;;;;;36.88;17.40;;;;;;;;;;4991789;28;20042;-69
2021/03/23 03:25:54;;;;;;;37.63;17.05;;;;;;;;;;4989726;28;20054;-70
2021/03/23 03:28:21;;;;;;;26.88;16.63;;;;;;;;;;4985380;28;20078;-70
2021/03/23 03:30:47;;;;;;;38.03;17.83;;;;;;;;;;4974763;28;20477;-70
2021/03/23 03:33:16;;;;;;;34.97;18.30;;;;;;;;;;4975710;28;20073;-70
2021/03/23 03:35:42;;;;;;;41.60;19.52;;;;;;;;;;4980023;28;20129;-70
2021/03/23 03:38:09;;;;;;;40.72;21.92;;;;;;;;;;4989013;28;20053;-70
2021/03/23 03:40:38;;;;;;;52.78;27.40;;;;;;;;;;4991019;28;20042;-70
2021/03/23 03:43:04;;;;;;;53.20;23.08;;;;;;;;;;4989441;28;20074;-70
2021/03/23 03:45:31;;;;;;;51.63;25.58;;;;;;;;;;4990475;28;20164;-70
2021/03/23 03:47:57;;;;;;;52.65;22.65;;;;;;;;;;4989643;28;20046;-70
2021/03/23 03:50:25;;;;;;;46.03;23.10;;;;;;;;;;4990384;28;20042;-70
2021/03/23 03:52:51;;;;;;;44.28;22.52;;;;;;;;;;4989881;28;20060;-70
2021/03/23 03:55:19;;;;;;;42.33;21.83;;;;;;;;;;4987663;28;20042;-69
2021/03/23 03:57:46;;;;;;;37.63;20.98;;;;;;;;;;4988814;28;20157;-70
2021/03/23 04:00:15;;;;;;;49.58;24.02;;;;;;;;;;4990873;28;20039;-70
2021/03/23 04:02:41;;;;;;;41.38;20.63;;;;;;;;;;4989764;28;20093;-69
2021/03/23 04:05:08;;;;;;;40.15;20.38;;;;;;;;;;4990589;28;20042;-70
2021/03/23 04:07:34;;;;;;;44.03;22.90;;;;;;;;;;4990318;28;20068;-70
2021/03/23 04:10:01;;;;;;;48.38;23.63;;;;;;;;;;4988404;28;20417;-70
2021/03/23 04:12:27;;;;;;;47.97;23.73;;;;;;;;;;4984566;28;20055;-70
2021/03/23 04:14:53;;;;;;;48.35;23.98;;;;;;;;;;4989536;28;20043;-70
2021/03/23 04:17:19;;;;;;;47.03;23.92;;;;;;;;;;4989302;28;20037;-70
2021/03/23 04:19:46;;;;;;;48.13;22.45;;;;;;;;;;4990169;28;20047;-69
2021/03/23 04:22:12;;;;;;;74.15;33.53;;;;;;;;;;4987390;28;20042;-70
2021/03/23 04:24:38;;;;;;;80.25;33.85;;;;;;;;;;4989797;28;20038;-70
2021/03/23 04:27:05;;;;;;;77.07;32.47;;;;;;;;;;4989123;28;20058;-70
2021/03/23 04:29:31;;;;;;;74.65;31.35;;;;;;;;;;4988798;28;20038;-70
2021/03/23 04:31:57;;;;;;;75.38;31.73;;;;;;;;;;4989820;28;20497;-70
2021/03/23 04:34:24;;;;;;;105.75;38.63;;;;;;;;;;4988992;28;20054;-70
2021/03/23 04:36:50;;;;;;;95.75;37.10;;;;;;;;;;4988955;28;20051;-70
2021/03/23 04:39:16;;;;;;;99.35;39.15;;;;;;;;;;4988699;28;20042;-70
2021/03/23 04:41:43;;;;;;;146.15;46.42;;;;;;;;;;4990421;28;20042;-69
2021/03/23 04:44:09;;;;;;;118.72;43.53;;;;;;;;;;4989090;28;20050;-70
2021/03/23 04:46:35;;;;;;;102.65;38.50;;;;;;;;;;4987463;28;20449;-70
2021/03/23 04:49:02;;;;;;;133.85;45.85;;;;;;;;;;4989258;28;20085;-70
2021/03/23 04:51:29;;;;;;;127.40;45.13;;;;;;;;;;4988489;28;20089;-70
2021/03/23 04:54:00;;;;;;;148.10;48.17;;;;;;;;;;4988995;28;20121;-69
2021/03/23 04:56:28;;;;;;;139.73;46.13;;;;;;;;;;4986518;28;20049;-70
2021/03/23 04:58:55;;;;;;;138.75;47.10;;;;;;;;;;4989250;28;20038;-70
2021/03/23 05:01:21;;;;;;;129.73;45.60;;;;;;;;;;4988423;28;20482;-70
2021/03/23 05:03:52;;;;;;;131.43;46.40;;;;;;;;;;4990468;28;20141;-70
2021/03/23 05:06:18;;;;;;;123.70;43.40;;;;;;;;;;4987251;28;20050;-70
2021/03/23 05:08:44;;;;;;;127.03;45.50;;;;;;;;;;4989074;28;20563;-70
2021/03/23 05:11:12;;;;;;;135.27;46.33;;;;;;;;;;4987596;28;20047;-70
2021/03/23 05:13:39;;;;;;;125.40;46.53;;;;;;;;;;4990020;28;20055;-70
2021/03/23 05:16:05;;;;;;;132.60;47.50;;;;;;;;;;4989596;28;20093;-70
2021/03/23 05:18:31;;;;;;;114.88;43.40;;;;;;;;;;4988465;28;20105;-70
2021/03/23 05:20:58;;;;;;;126.20;44.40;;;;;;;;;;4988533;28;20556;-70
2021/03/23 05:23:24;;;;;;;111.68;42.85;;;;;;;;;;4989024;28;20062;-70
2021/03/23 05:25:51;;;;;;;104.60;41.80;;;;;;;;;;4988600;28;20133;-70
2021/03/23 05:28:17;;;;;;;107.50;42.20;;;;;;;;;;4989671;28;20432;-69
2021/03/23 05:30:44;;;;;;;111.47;42.70;;;;;;;;;;4983180;28;20050;-70
2021/03/23 05:33:11;;;;;;;105.85;44.47;;;;;;;;;;4977340;28;20054;-70
2021/03/23 05:35:38;;;;;;;110.25;45.40;;;;;;;;;;4988961;28;20060;-70
2021/03/23 05:38:04;;;;;;;120.50;42.80;;;;;;;;;;4980225;28;20051;-70
2021/03/23 05:40:34;;;;;;;121.63;45.70;;;;;;;;;;4969653;28;20145;-70
2021/03/23 05:43:19;;;;;;;106.80;43.33;;;;;;;;;;4978871;28;20409;-70
2021/03/23 05:45:46;;;;;;;107.05;42.03;;;;;;;;;;4986577;28;20172;-70
2021/03/23 05:48:16;;;;;;;117.15;43.50;;;;;;;;;;4988175;28;20081;-70
2021/03/23 05:50:44;;;;;;;106.68;41.30;;;;;;;;;;4985474;28;20046;-70
2021/03/23 05:53:15;;;;;;;112.90;43.60;;;;;;;;;;4985102;28;20121;-70
2021/03/23 05:55:43;;;;;;;118.63;42.03;;;;;;;;;;4983173;28;20045;-69
2021/03/23 05:58:15;;;;;;;112.78;42.95;;;;;;;;;;4983520;28;20061;-70
2021/03/23 06:00:42;;;;;;;127.85;43.55;;;;;;;;;;4983843;28;20166;-69
2021/03/23 06:03:20;;;;;;;119.78;42.90;;;;;;;;;;4983688;28;20061;-69
2021/03/23 06:05:48;;;;;;;126.78;44.28;;;;;;;;;;4988447;28;20559;-70
2021/03/23 06:08:36;;;;;;;120.38;45.95;;;;;;;;;;4991457;28;20050;-69
2021/03/23 06:11:06;;;;;;;122.57;43.72;;;;;;;;;;4989737;28;20394;-69
2021/03/23 06:13:34;;;;;;;130.23;47.08;;;;;;;;;;4989773;28;20050;-69
2021/03/23 06:16:04;;;;;;;124.85;43.60;;;;;;;;;;4990131;28;20042;-70
2021/03/23 06:18:34;;;;;;;133.35;47.30;;;;;;;;;;4991641;28;22081;-70
2021/03/23 06:21:05;;;;;;;124.35;44.97;;;;;;;;;;4991199;28;20038;-71
2021/03/23 06:23:48;;;;;;;131.82;48.58;;;;;;;;;;4990100;28;20042;-70
2021/03/23 06:26:15;;;;;;;132.48;48.08;;;;;;;;;;4993108;28;20069;-70
2021/03/23 06:28:57;;;;;;;127.85;46.55;;;;;;;;;;4993773;28;20046;-70
2021/03/23 06:31:29;;;;;;;121.85;47.63;;;;;;;;;;4994670;28;20038;-69
2021/03/23 06:33:55;;;;;;;126.68;48.80;;;;;;;;;;4992066;28;20061;-69
2021/03/23 06:36:24;;;;;;;115.03;46.58;;;;;;;;;;4993632;28;20121;-70
2021/03/23 06:38:51;;;;;;;121.15;48.95;;;;;;;;;;4994205;28;20104;-69
2021/03/23 06:41:19;;;;;;;123.95;46.35;;;;;;;;;;4990784;28;20050;-69
2021/03/23 06:43:48;;;;;;;131.65;50.38;;;;;;;;;;4995225;28;20061;-69
2021/03/23 06:46:23;;;;;;;127.82;50.80;;;;;;;;;;4994279;28;20109;-69
2021/03/23 06:49:01;;;;;;;139.38;52.50;;;;;;;;;;4990726;28;20141;-69
2021/03/23 06:51:27;;;;;;;115.63;54.25;;;;;;;;;;4990843;28;20035;-69
2021/03/23 06:53:53;;;;;;;126.85;53.65;;;;;;;;;;4993598;28;20043;-69
2021/03/23 06:56:21;;;;;;;100.45;50.63;;;;;;;;;;4993625;28;20035;-70
2021/03/23 06:58:48;;;;;;;102.55;55.60;;;;;;;;;;4992891;28;20112;-70
2021/03/23 07:01:22;;;;;;;90.38;49.75;;;;;;;;;;4993668;28;20046;-70
2021/03/23 07:03:50;;;;;;;97.63;53.80;;;;;;;;;;4988778;28;20441;-69
2021/03/23 07:06:17;;;;;;;106.45;54.80;;;;;;;;;;4992956;28;20039;-70
2021/03/23 07:08:44;;;;;;;113.07;58.10;;;;;;;;;;4987710;28;20047;-70
2021/03/23 07:11:10;;;;;;;107.28;53.35;;;;;;;;;;4986256;28;20054;-70
2021/03/23 07:13:40;;;;;;;121.82;56.65;;;;;;;;;;4991792;28;20402;-69
2021/03/23 07:16:10;;;;;;;122.78;56.22;;;;;;;;;;4992753;28;20085;-69
2021/03/23 07:18:39;;;;;;;114.38;54.10;;;;;;;;;;4992335;28;20046;-69
2021/03/23 07:21:11;;;;;;;125.63;53.85;;;;;;;;;;4989842;28;20089;-70
2021/03/23 07:23:40;;;;;;;111.50;53.53;;;;;;;;;;4990782;28;20497;-69
2021/03/23 07:26:13;;;;;;;136.55;58.20;;;;;;;;;;4993348;28;20044;-69
2021/03/23 07:28:42;;;;;;;135.60;56.85;;;;;;;;;;4993602;28;20160;-69
2021/03/23 07:31:09;;;;;;;118.10;55.70;;;;;;;;;;4993899;28;20493;-69
2021/03/23 07:33:39;;;;;;;118.15;51.47;;;;;;;;;;4991364;28;20074;-70
2021/03/23 07:36:07;;;;;;;126.50;53.95;;;;;;;;;;4993870;28;20060;-70
2021/03/23 07:38:40;;;;;;;128.00;54.08;;;;;;;;;;4993844;28;20073;-70
2021/03/23 07:41:14;;;;;;;112.93;54.47;;;;;;;;;;4983722;28;20049;-69
2021/03/23 07:43:46;;;;;;;107.72;50.33;;;;;;;;;;4993881;28;20046;-70
2021/03/23 07:46:15;;;;;;;113.30;51.88;;;;;;;;;;4983557;28;20050;-70
2021/03/23 07:48:44;;;;;;;115.68;50.65;;;;;;;;;;4993727;28;20042;-70
2021/03/23 07:51:19;;;;;;;107.15;49.88;;;;;;;;;;4993447;28;20034;-69
2021/03/23 07:53:45;;;;;;;106.75;48.50;;;;;;;;;;4992757;28;20104;-70
2021/03/23 07:56:18;;;;;;;96.45;45.28;;;;;;;;;;4993040;28;20185;-70
2021/03/23 07:58:58;;;;;;;92.32;44.75;;;;;;;;;;4993279;28;20374;-69
2021/03/23 08:01:43;;;;;;;94.10;45.90;;;;;;;;;;4987996;28;20347;-69
2021/03/23 08:04:09;;;;;;;77.45;40.08;;;;;;;;;;4993337;28;20393;-70
2021/03/23 08:06:36;;;;;;;79.40;41.08;;;;;;;;;;4992849;28;20050;-70
2021/03/23 08:09:20;;;;;;;81.75;38.40;;;;;;;;;;4992496;28;20454;-70
2021/03/23 08:11:55;;;;;;;72.35;39.28;;;;;;;;;;4992824;28;20054;-70
2021/03/23 08:14:38;;;;;;;64.60;36.35;;;;;;;;;;4992269;28;20046;-70
2021/03/23 08:17:12;;;;;;;68.13;36.45;;;;;;;;;;4992260;28;20046;-70
2021/03/23 08:19:39;;;;;;;;;;;;;;;;;;4993508;28;20065;-69
2021/03/23 08:22:17;;;;;;;68.35;35.92;;;;;;;;;;4992150;28;20335;-70
2021/03/23 08:25:00;;;;;;;60.58;32.90;;;;;;;;;;4992857;28;20042;-70
2021/03/23 08:27:48;;;;;;;63.10;34.25;;;;;;;;;;4990471;28;20046;-69
2021/03/23 08:30:35;;;;;;;56.38;33.13;;;;;;;;;;4992213;28;20053;-70
2021/03/23 08:33:02;;;;;;;55.50;32.70;;;;;;;;;;4992653;28;20120;-70
2021/03/23 08:35:29;;;;;;;64.97;33.30;;;;;;;;;;4992160;28;20038;-69
2021/03/23 08:37:56;;;;;;;53.58;31.67;;;;;;;;;;4991910;28;20480;-69
2021/03/23 08:40:34;;;;;;;56.35;33.15;;;;;;;;;;4992664;28;20118;-70
2021/03/23 08:43:01;;;;;;;53.78;31.23;;;;;;;;;;4991843;28;20491;-70
2021/03/23 08:45:30;;;;;;;53.60;32.40;;;;;;;;;;4992414;28;20046;-70
2021/03/23 08:48:03;;;;;;;51.15;31.55;;;;;;;;;;4983303;28;20128;-70
2021/03/23 08:50:35;;;;;;;51.37;31.07;;;;;;;;;;4991843;28;20138;-71
2021/03/23 08:53:04;;;;;;;49.17;30.67;;;;;;;;;;4992601;28;20053;-71
2021/03/23 08:55:45;;;;;;;48.05;31.52;;;;;;;;;;4992708;28;20038;-70
2021/03/23 08:58:15;;;;;;;44.38;28.58;;;;;;;;;;4987239;28;20054;-70
2021/03/23 09:00:55;;;;;;;50.35;32.00;;;;;;;;;;4982688;28;20035;-70
2021/03/23 09:03:39;;;;;;;49.83;30.67;;;;;;;;;;4987103;28;20046;-70
2021/03/23 09:06:06;;;;;;;44.65;29.15;;;;;;;;;;4992220;28;20038;-70
2021/03/23 09:08:35;;;;;;;48.90;28.92;;;;;;;;;;4991335;28;20046;-70
2021/03/23 09:11:06;;;;;;;48.67;31.10;;;;;;;;;;4991405;28;20066;-70
2021/03/23 09:13:51;;;;;;;42.25;27.67;;;;;;;;;;4992201;28;20137;-71
2021/03/23 09:16:19;;;;;;;41.42;27.83;;;;;;;;;;4992301;28;20045;-70
2021/03/23 09:19:04;;;;;;;41.53;28.67;;;;;;;;;;4990638;28;20054;-71
2021/03/23 09:21:49;;;;;;;42.20;27.88;;;;;;;;;;4992063;28;20039;-70
2021/03/23 09:24:26;;;;;;;34.92;25.33;;;;;;;;;;4979881;28;20039;-70
2021/03/23 09:26:54;;;;;;;42.25;29.23;;;;;;;;;;4992174;28;20137;-70
2021/03/23 09:29:40;;;;;;;42.33;27.67;;;;;;;;;;4991489;28;20129;-70
2021/03/23 09:32:11;;;;;;;44.10;27.30;;;;;;;;;;4990018;28;20450;-70
2021/03/23 09:34:56;;;;;;;39.13;27.10;;;;;;;;;;4992032;28;20073;-70
2021/03/23 09:37:32;;;;;;;40.55;27.48;;;;;;;;;;4991934;28;20061;-70
2021/03/23 09:39:59;;;;;;;38.80;28.15;;;;;;;;;;4990750;28;20046;-70
2021/03/23 09:42:30;;;;;;;39.75;28.23;;;;;;;;;;4992074;28;20042;-71
2021/03/23 09:45:17;;;;;;;39.78;28.40;;;;;;;;;;4991905;28;20047;-70
2021/03/23 09:47:52;;;;;;;40.55;29.27;;;;;;;;;;4991352;28;20388;-71
2021/03/23 09:50:27;;;;;;;39.20;28.42;;;;;;;;;;4988820;28;20047;-70
2021/03/23 09:53:14;;;;;;;42.92;26.70;;;;;;;;;;4991131;28;20064;-70
2021/03/23 09:55:41;;;;;;;43.63;29.90;;;;;;;;;;4991940;28;20545;-70
2021/03/23 09:58:13;;;;;;;39.17;29.25;;;;;;;;;;4995705;28;20355;-70
2021/03/23 10:00:40;;;;;;;42.40;29.33;;;;;;;;;;4994268;28;20042;-70
2021/03/23 10:03:18;;;;;;;43.60;30.05;;;;;;;;;;4994576;28;20050;-70
2021/03/23 10:05:57;;;;;;;40.17;29.65;;;;;;;;;;4995678;28;20054;-70
2021/03/23 10:08:23;;;;;;;43.53;29.85;;;;;;;;;;4995423;28;20061;-70
2021/03/23 10:10:50;;;;;;;41.42;29.67;;;;;;;;;;4994544;28;20050;-71
2021/03/23 10:13:17;;;;;;;41.72;28.35;;;;;;;;;;4995598;28;20050;-71
2021/03/23 10:15:44;;;;;;;42.25;30.58;;;;;;;;;;4994707;28;20394;-70
2021/03/23 10:18:17;;;;;;;44.60;30.98;;;;;;;;;;4995459;28;20466;-72
2021/03/23 10:20:44;;;;;;;44.30;30.35;;;;;;;;;;4983247;28;20528;-70
2021/03/23 10:23:11;;;;;;;44.47;30.85;;;;;;;;;;4995243;28;20478;-70
2021/03/23 10:25:37;;;;;;;43.03;30.98;;;;;;;;;;4994946;28;20097;-70
2021/03/23 10:28:05;;;;;;;45.50;31.48;;;;;;;;;;4994597;28;20058;-70
2021/03/23 10:30:35;;;;;;;42.00;29.00;;;;;;;;;;4994681;28;20046;-70
2021/03/23 10:33:21;;;;;;;43.97;31.52;;;;;;;;;;4995301;28;20046;-70
2021/03/23 10:35:50;;;;;;;45.88;30.63;;;;;;;;;;4992811;28;20466;-70
2021/03/23 10:38:17;;;;;;;50.63;33.08;;;;;;;;;;4995235;28;20042;-70
2021/03/23 10:40:45;;;;;;;51.20;31.30;;;;;;;;;;4994379;28;20057;-70
2021/03/23 10:43:14;;;;;;;42.80;29.73;;;;;;;;;;4994510;28;20046;-70
2021/03/23 10:45:46;;;;;;;43.05;30.52;;;;;;;;;;4994925;28;20046;-70
2021/03/23 10:48:16;;;;;;;41.20;29.85;;;;;;;;;;4994778;28;20125;-70
2021/03/23 10:50:43;;;;;;;48.95;32.03;;;;;;;;;;4993824;28;20042;-70
2021/03/23 10:53:12;;;;;;;42.38;30.92;;;;;;;;;;4994363;28;20106;-71
2021/03/23 10:55:45;;;;;;;42.63;28.65;;;;;;;;;;4994325;28;20053;-70
2021/03/23 10:58:18;;;;;;;44.00;29.23;;;;;;;;;;4994737;28;20050;-71
2021/03/23 11:00:45;;;;;;;43.78;28.13;;;;;;;;;;4993167;28;20046;-70
2021/03/23 11:03:32;;;;;;;37.95;28.25;;;;;;;;;;4991918;28;20450;-70
2021/03/23 11:05:59;;;;;;;38.00;28.45;;;;;;;;;;4994549;28;20042;-70
2021/03/23 11:08:26;;;;;;;40.80;27.67;;;;;;;;;;4991883;28;20500;-70
2021/03/23 11:10:55;;;;;;;35.78;26.60;;;;;;;;;;4993721;28;20046;-70
2021/03/23 11:13:21;;;;;;;41.83;25.98;;;;;;;;;;4993581;28;20129;-70
2021/03/23 11:15:49;;;;;;;36.80;26.75;;;;;;;;;;4994695;28;20046;-70
2021/03/23 11:18:17;;;;;;;39.42;27.58;;;;;;;;;;4993668;28;20050;-70
2021/03/23 11:20:44;;;;;;;39.78;28.90;;;;;;;;;;4994577;28;20393;-70
2021/03/23 11:23:21;;;;;;;42.97;27.48;;;;;;;;;;4993874;28;20049;-70
2021/03/23 11:25:47;;;;;;;40.85;27.38;;;;;;;;;;4975815;28;20083;-70
2021/03/23 11:28:19;;;;;;;37.60;27.08;;;;;;;;;;4986979;28;20054;-70
2021/03/23 11:30:46;;;;;;;40.00;26.08;;;;;;;;;;4994195;28;20046;-70
2021/03/23 11:33:13;;;;;;;37.47;25.48;;;;;;;;;;4992900;28;20042;-70
2021/03/23 11:35:40;;;;;;;36.70;26.63;;;;;;;;;;4993850;28;20085;-70
2021/03/23 11:38:07;;;;;;;40.17;26.95;;;;;;;;;;4993258;28;20042;-70
2021/03/23 11:40:33;;;;;;;41.28;26.80;;;;;;;;;;4993083;28;20145;-82
2021/03/23 11:43:00;;;;;;;42.22;28.45;;;;;;;;;;4997730;28;20042;-71
2021/03/23 11:45:31;;;;;;;43.55;28.98;;;;;;;;;;4998552;28;20053;-71
2021/03/23 11:48:01;;;;;;;41.45;26.42;;;;;;;;;;4991224;28;20363;-70
2021/03/23 11:50:29;;;;;;;41.53;29.63;;;;;;;;;;4992590;28;20096;-70
2021/03/23 11:52:56;;;;;;;37.65;27.63;;;;;;;;;;4990918;28;20050;-70
2021/03/23 11:55:25;;;;;;;40.53;28.33;;;;;;;;;;4993608;28;20038;-70
2021/03/23 11:57:52;;;;;;;36.30;27.52;;;;;;;;;;4993313;28;20077;-70
2021/03/23 12:00:20;;;;;;;42.53;28.60;;;;;;;;;;4984025;28;20109;-70
2021/03/23 12:02:47;;;;;;;39.97;29.35;;;;;;;;;;4990854;28;20073;-70
2021/03/23 12:05:13;;;;;;;37.45;29.00;;;;;;;;;;4993271;28;20233;-70
2021/03/23 12:07:48;;;;;;;40.88;28.38;;;;;;;;;;4991936;28;20049;-70
2021/03/23 12:10:16;;;;;;;41.10;30.33;;;;;;;;;;4989891;28;20050;-70
2021/03/23 12:12:48;;;;;;;41.33;30.52;;;;;;;;;;4985716;28;20053;-70
2021/03/23 12:15:21;;;;;;;48.20;32.28;;;;;;;;;;4992316;28;20423;-70
2021/03/23 12:17:50;;;;;;;40.15;31.55;;;;;;;;;;4984904;28;20072;-70
2021/03/23 12:20:20;;;;;;;40.35;30.33;;;;;;;;;;4992202;28;20045;-70
2021/03/23 12:22:48;;;;;;;37.65;31.02;;;;;;;;;;4988832;28;20050;-70
2021/03/23 12:25:15;;;;;;;44.25;32.05;;;;;;;;;;4993219;28;20042;-70
2021/03/23 12:27:41;;;;;;;42.83;31.02;;;;;;;;;;4988285;28;20042;-70
2021/03/23 12:30:09;;;;;;;41.25;31.33;;;;;;;;;;4992678;28;20386;-71
2021/03/23 12:32:36;;;;;;;41.25;31.20;;;;;;;;;;4989114;28;20043;-70
2021/03/23 12:35:08;;;;;;;43.25;31.05;;;;;;;;;;4992449;28;20076;-70
2021/03/23 12:37:35;;;;;;;46.50;32.05;;;;;;;;;;4988356;28;20043;-71
2021/03/23 12:40:01;;;;;;;41.60;30.13;;;;;;;;;;4993061;28;20167;-70
2021/03/23 12:42:28;;;;;;;36.78;29.70;;;;;;;;;;4985572;28;20093;-70
2021/03/23 12:44:54;;;;;;;39.72;32.45;;;;;;;;;;4990907;28;20401;-71
2021/03/23 12:47:21;;;;;;;42.20;31.60;;;;;;;;;;4992587;28;20042;-71
2021/03/23 12:49:47;;;;;;;41.15;32.15;;;;;;;;;;4982919;28;20042;-70
2021/03/23 12:52:15;;;;;;;44.85;32.42;;;;;;;;;;4992502;28;20046;-71
2021/03/23 12:54:43;;;;;;;39.33;30.50;;;;;;;;;;4983567;28;20517;-71
2021/03/23 12:57:17;;;;;;;40.80;30.52;;;;;;;;;;4990524;28;20157;-70
2021/03/23 12:59:44;;;;;;;41.55;31.48;;;;;;;;;;4982474;28;20469;-70
2021/03/23 13:02:12;;;;;;;42.15;29.48;;;;;;;;;;4992555;28;20093;-70
2021/03/23 13:04:38;;;;;;;43.28;30.75;;;;;;;;;;4990839;28;20089;-70
2021/03/23 13:07:06;;;;;;;44.75;32.33;;;;;;;;;;4992239;28;20548;-70
2021/03/23 13:09:34;;;;;;;45.28;32.30;;;;;;;;;;4990801;28;20050;-70
2021/03/23 13:12:02;;;;;;;44.90;31.42;;;;;;;;;;4986392;28;20093;-70
2021/03/23 13:14:29;;;;;;;43.08;32.00;;;;;;;;;;4983020;28;20066;-70
2021/03/23 13:16:56;;;;;;;43.97;32.60;;;;;;;;;;4986249;28;20119;-70
2021/03/23 13:19:23;;;;;;;44.30;32.08;;;;;;;;;;4992361;28;20046;-70
2021/03/23 13:21:55;;;;;;;41.00;30.90;;;;;;;;;;4991353;28;20512;-70
2021/03/23 13:24:27;;;;;;;46.53;32.17;;;;;;;;;;4991408;28;20057;-70
2021/03/23 13:26:56;;;;;;;43.05;31.00;;;;;;;;;;4989788;28;20043;-70
2021/03/23 13:29:22;;;;;;;44.70;31.92;;;;;;;;;;4992113;28;20042;-70
2021/03/23 13:31:49;;;;;;;46.97;32.95;;;;;;;;;;4981819;28;20050;-70
2021/03/23 13:34:17;;;;;;;46.85;33.08;;;;;;;;;;4981492;28;20268;-69
2021/03/23 13:36:45;;;;;;;42.13;30.05;;;;;;;;;;4992091;28;20074;-70
2021/03/23 13:39:18;;;;;;;44.15;31.17;;;;;;;;;;4978929;28;20072;-70
2021/03/23 13:41:45;;;;;;;38.73;30.40;;;;;;;;;;4992165;28;20046;-70
2021/03/23 13:44:22;;;;;;;46.90;31.55;;;;;;;;;;4981872;28;20058;-70
2021/03/23 13:46:50;;;;;;;40.42;31.73;;;;;;;;;;4991258;28;20050;-70
2021/03/23 13:49:17;;;;;;;43.03;30.88;;;;;;;;;;4983274;28;20101;-70
2021/03/23 13:51:45;;;;;;;45.45;33.38;;;;;;;;;;4991253;28;20083;-70
2021/03/23 13:54:11;;;;;;;43.80;33.13;;;;;;;;;;4981259;28;20054;-70
2021/03/23 13:56:38;;;;;;;46.20;32.80;;;;;;;;;;4991960;28;20041;-70
2021/03/23 13:59:04;;;;;;;43.40;32.88;;;;;;;;;;4992774;28;20049;-71
2021/03/23 14:01:30;;;;;;;45.70;32.58;;;;;;;;;;5001571;28;20042;-70
2021/03/23 14:03:57;;;;;;;38.88;31.05;;;;;;;;;;4998821;28;20050;-69
2021/03/23 14:06:25;;;;;;;46.55;33.95;;;;;;;;;;4980308;28;20486;-68
2021/03/23 14:08:52;;;;;;;43.40;32.38;;;;;;;;;;4989607;28;20137;-69
2021/03/23 14:11:20;;;;;;;46.63;32.13;;;;;;;;;;4990612;28;20096;-68
2021/03/23 14:13:46;;;;;;;46.50;32.88;;;;;;;;;;4996319;28;20142;-68
2021/03/23 14:16:13;;;;;;;44.97;32.33;;;;;;;;;;4988553;28;20046;-68
2021/03/23 14:18:39;;;;;;;45.63;33.85;;;;;;;;;;4982213;28;20046;-68
2021/03/23 14:21:07;;;;;;;44.45;32.80;;;;;;;;;;4985139;28;20034;-68
2021/03/23 14:23:39;;;;;;;48.88;34.08;;;;;;;;;;4978214;28;20078;-69
2021/03/23 14:26:06;;;;;;;43.00;29.92;;;;;;;;;;4976807;28;20039;-68
2021/03/23 14:28:34;;;;;;;45.35;33.17;;;;;;;;;;4990657;28;20078;-68